sensor_id;sensor_type;location;lat;lon;timestamp;temperature;humidity
2945;DHT22;1482;51.398;7.128;2023-06-14T00:01:41;18.30;1.00
2945;DHT22;1482;51.398;7.128;2023-06-14T00:04:06;18.30;1.00
2945;DHT22;1482;51.398;7.128;2023-06-14T00:06:34;18.20;1.00
2945;DHT22;1482;51.398;7.128;2023-06-14T00:08:59;18.20;1.00
2945;DHT22;1482;51.398;7.128;2023-06-14T00:11:25;18.20;1.00
2945;DHT22;1482;51.398;7.128;2023-06-14T00:13:52;18.20;1.00
2945;DHT22;1482;51.398;7.128;2023-06-14T00:16:18;18.10;1.00
2945;DHT22;1482;51.398;7.128;2023-06-14T00:18:45;18.00;1.00
2945;DHT22;1482;51.398;7.128;2023-06-14T00:21:11;17.90;1.00
2945;DHT22;1482;51.398;7.128;2023-06-14T00:23:37;17.90;1.00
2945;DHT22;1482;51.398;7.128;2023-06-14T00:26:03;17.90;1.00
2945;DHT22;1482;51.398;7.128;2023-06-14T00:28:28;17.90;1.00
2945;DHT22;1482;51.398;7.128;2023-06-14T00:30:54;17.90;1.00
2945;DHT22;1482;51.398;7.128;2023-06-14T00:33:19;17.80;1.00
2945;DHT22;1482;51.398;7.128;2023-06-14T00:35:45;17.70;1.00
2945;DHT22;1482;51.398;7.128;2023-06-14T00:38:12;17.60;1.00
2945;DHT22;1482;51.398;7.128;2023-06-14T00:40:38;17.60;1.00
2945;DHT22;1482;51.398;7.128;2023-06-14T00:43:03;17.60;1.00
2945;DHT22;1482;51.398;7.128;2023-06-14T00:45:29;17.70;1.00
2945;DHT22;1482;51.398;7.128;2023-06-14T00:47:56;17.60;1.00
2945;DHT22;1482;51.398;7.128;2023-06-14T00:50:22;17.50;1.00
2945;DHT22;1482;51.398;7.128;2023-06-14T00:52:49;17.40;1.00
2945;DHT22;1482;51.398;7.128;2023-06-14T00:55:14;17.30;1.00
2945;DHT22;1482;51.398;7.128;2023-06-14T00:57:40;17.40;1.00
2945;DHT22;1482;51.398;7.128;2023-06-14T01:00:07;17.40;1.00
2945;DHT22;1482;51.398;7.128;2023-06-14T01:02:39;17.30;1.00
2945;DHT22;1482;51.398;7.128;2023-06-14T01:05:05;17.20;1.00
2945;DHT22;1482;51.398;7.128;2023-06-14T01:11:28;17.20;1.00
2945;DHT22;1482;51.398;7.128;2023-06-14T01:13:58;17.10;1.00
2945;DHT22;1482;51.398;7.128;2023-06-14T01:16:25;17.10;1.00
2945;DHT22;1482;51.398;7.128;2023-06-14T01:18:53;17.00;1.00
2945;DHT22;1482;51.398;7.128;2023-06-14T01:21:25;16.90;1.00
2945;DHT22;1482;51.398;7.128;2023-06-14T01:23:54;16.80;1.00
2945;DHT22;1482;51.398;7.128;2023-06-14T01:26:21;16.80;1.00
2945;DHT22;1482;51.398;7.128;2023-06-14T01:28:47;16.70;1.00
2945;DHT22;1482;51.398;7.128;2023-06-14T01:31:17;16.60;1.00
2945;DHT22;1482;51.398;7.128;2023-06-14T01:33:43;16.60;1.00
2945;DHT22;1482;51.398;7.128;2023-06-14T01:36:10;16.60;1.00
2945;DHT22;1482;51.398;7.128;2023-06-14T01:38:37;16.60;1.00
2945;DHT22;1482;51.398;7.128;2023-06-14T01:41:03;16.50;1.00
2945;DHT22;1482;51.398;7.128;2023-06-14T01:43:30;16.50;1.00
2945;DHT22;1482;51.398;7.128;2023-06-14T01:45:57;16.50;1.00
2945;DHT22;1482;51.398;7.128;2023-06-14T01:48:23;16.40;1.00
2945;DHT22;1482;51.398;7.128;2023-06-14T01:50:49;16.40;1.00
2945;DHT22;1482;51.398;7.128;2023-06-14T01:53:15;16.40;1.00
2945;DHT22;1482;51.398;7.128;2023-06-14T01:55:41;16.30;1.00
2945;DHT22;1482;51.398;7.128;2023-06-14T01:58:11;16.40;1.00
2945;DHT22;1482;51.398;7.128;2023-06-14T02:00:37;16.40;1.00
2945;DHT22;1482;51.398;7.128;2023-06-14T02:03:03;16.30;1.00
2945;DHT22;1482;51.398;7.128;2023-06-14T02:05:31;16.30;1.00
2945;DHT22;1482;51.398;7.128;2023-06-14T02:07:57;16.30;1.00
2945;DHT22;1482;51.398;7.128;2023-06-14T02:10:23;16.30;1.00
2945;DHT22;1482;51.398;7.128;2023-06-14T02:12:48;16.20;1.00
2945;DHT22;1482;51.398;7.128;2023-06-14T02:15:14;16.20;1.00
2945;DHT22;1482;51.398;7.128;2023-06-14T02:17:45;16.20;1.00
2945;DHT22;1482;51.398;7.128;2023-06-14T02:20:12;16.10;1.00
2945;DHT22;1482;51.398;7.128;2023-06-14T02:22:38;16.10;1.00
2945;DHT22;1482;51.398;7.128;2023-06-14T02:25:04;16.20;1.00
2945;DHT22;1482;51.398;7.128;2023-06-14T02:27:30;16.10;1.00
2945;DHT22;1482;51.398;7.128;2023-06-14T02:29:55;16.00;1.00
2945;DHT22;1482;51.398;7.128;2023-06-14T02:32:21;15.90;1.00
2945;DHT22;1482;51.398;7.128;2023-06-14T02:34:46;16.00;1.00
2945;DHT22;1482;51.398;7.128;2023-06-14T02:37:15;16.00;1.00
2945;DHT22;1482;51.398;7.128;2023-06-14T02:39:40;15.90;1.00
2945;DHT22;1482;51.398;7.128;2023-06-14T02:42:06;15.90;1.00
2945;DHT22;1482;51.398;7.128;2023-06-14T02:44:32;15.80;1.00
2945;DHT22;1482;51.398;7.128;2023-06-14T02:46:58;15.70;1.00
2945;DHT22;1482;51.398;7.128;2023-06-14T02:49:25;15.80;1.00
2945;DHT22;1482;51.398;7.128;2023-06-14T02:51:51;15.70;1.00
2945;DHT22;1482;51.398;7.128;2023-06-14T02:54:17;15.70;1.00
2945;DHT22;1482;51.398;7.128;2023-06-14T02:56:42;15.70;1.00
2945;DHT22;1482;51.398;7.128;2023-06-14T02:59:08;15.60;1.00
2945;DHT22;1482;51.398;7.128;2023-06-14T03:01:34;15.60;1.00
2945;DHT22;1482;51.398;7.128;2023-06-14T03:04:03;15.60;1.00
2945;DHT22;1482;51.398;7.128;2023-06-14T03:06:29;15.60;1.00
2945;DHT22;1482;51.398;7.128;2023-06-14T03:08:57;15.60;1.00
2945;DHT22;1482;51.398;7.128;2023-06-14T03:11:28;15.50;1.00
2945;DHT22;1482;51.398;7.128;2023-06-14T03:13:54;15.50;1.00
2945;DHT22;1482;51.398;7.128;2023-06-14T03:16:21;15.40;1.00
2945;DHT22;1482;51.398;7.128;2023-06-14T03:18:50;15.50;1.00
2945;DHT22;1482;51.398;7.128;2023-06-14T03:21:16;15.40;1.00
2945;DHT22;1482;51.398;7.128;2023-06-14T03:23:42;15.40;1.00
2945;DHT22;1482;51.398;7.128;2023-06-14T03:26:08;15.50;1.00
2945;DHT22;1482;51.398;7.128;2023-06-14T03:28:34;15.50;1.00
2945;DHT22;1482;51.398;7.128;2023-06-14T03:30:59;15.40;1.00
2945;DHT22;1482;51.398;7.128;2023-06-14T03:33:25;15.40;1.00
2945;DHT22;1482;51.398;7.128;2023-06-14T03:35:51;15.50;1.00
2945;DHT22;1482;51.398;7.128;2023-06-14T03:38:17;15.50;1.00
2945;DHT22;1482;51.398;7.128;2023-06-14T03:40:42;15.40;1.00
2945;DHT22;1482;51.398;7.128;2023-06-14T03:43:09;15.30;1.00
2945;DHT22;1482;51.398;7.128;2023-06-14T03:45:35;15.20;1.00
2945;DHT22;1482;51.398;7.128;2023-06-14T03:48:01;15.20;1.00
2945;DHT22;1482;51.398;7.128;2023-06-14T03:50:26;15.30;1.00
2945;DHT22;1482;51.398;7.128;2023-06-14T03:52:52;15.20;1.00
2945;DHT22;1482;51.398;7.128;2023-06-14T03:55:18;15.20;1.00
2945;DHT22;1482;51.398;7.128;2023-06-14T03:57:44;15.20;1.00
2945;DHT22;1482;51.398;7.128;2023-06-14T04:00:10;15.30;1.00
2945;DHT22;1482;51.398;7.128;2023-06-14T04:02:37;15.20;1.00
2945;DHT22;1482;51.398;7.128;2023-06-14T04:05:03;15.30;1.00
2945;DHT22;1482;51.398;7.128;2023-06-14T04:07:28;15.40;1.00
2945;DHT22;1482;51.398;7.128;2023-06-14T04:09:55;15.40;1.00
2945;DHT22;1482;51.398;7.128;2023-06-14T04:12:20;15.50;1.00
2945;DHT22;1482;51.398;7.128;2023-06-14T04:14:46;15.50;1.00
2945;DHT22;1482;51.398;7.128;2023-06-14T04:17:12;15.50;1.00
2945;DHT22;1482;51.398;7.128;2023-06-14T04:19:37;15.70;1.00
2945;DHT22;1482;51.398;7.128;2023-06-14T04:22:03;16.40;1.00
2945;DHT22;1482;51.398;7.128;2023-06-14T04:24:29;17.50;1.00
2945;DHT22;1482;51.398;7.128;2023-06-14T04:26:58;19.20;1.00
2945;DHT22;1482;51.398;7.128;2023-06-14T04:29:24;21.20;1.00
2945;DHT22;1482;51.398;7.128;2023-06-14T04:31:53;22.90;1.00
2945;DHT22;1482;51.398;7.128;2023-06-14T04:34:20;24.70;1.00
2945;DHT22;1482;51.398;7.128;2023-06-14T04:36:47;26.00;1.00
2945;DHT22;1482;51.398;7.128;2023-06-14T04:39:18;27.10;1.00
2945;DHT22;1482;51.398;7.128;2023-06-14T04:41:44;28.00;1.00
2945;DHT22;1482;51.398;7.128;2023-06-14T04:44:10;29.10;1.00
2945;DHT22;1482;51.398;7.128;2023-06-14T04:46:38;29.30;1.00
2945;DHT22;1482;51.398;7.128;2023-06-14T04:49:20;30.20;1.00
2945;DHT22;1482;51.398;7.128;2023-06-14T04:51:45;31.50;1.00
2945;DHT22;1482;51.398;7.128;2023-06-14T04:54:12;32.30;1.00
2945;DHT22;1482;51.398;7.128;2023-06-14T04:56:41;32.70;1.00
2945;DHT22;1482;51.398;7.128;2023-06-14T04:59:07;33.10;1.00
2945;DHT22;1482;51.398;7.128;2023-06-14T05:01:34;32.70;1.00
2945;DHT22;1482;51.398;7.128;2023-06-14T05:03:59;33.20;1.00
2945;DHT22;1482;51.398;7.128;2023-06-14T05:06:25;34.40;1.00
2945;DHT22;1482;51.398;7.128;2023-06-14T05:08:54;34.90;1.00
2945;DHT22;1482;51.398;7.128;2023-06-14T05:11:20;34.60;1.00
2945;DHT22;1482;51.398;7.128;2023-06-14T05:13:45;35.50;1.00
2945;DHT22;1482;51.398;7.128;2023-06-14T05:16:12;36.50;1.00
2945;DHT22;1482;51.398;7.128;2023-06-14T05:18:38;36.40;1.00
2945;DHT22;1482;51.398;7.128;2023-06-14T05:21:04;36.20;1.00
2945;DHT22;1482;51.398;7.128;2023-06-14T05:23:32;36.00;1.00
2945;DHT22;1482;51.398;7.128;2023-06-14T05:25:58;35.20;1.00
2945;DHT22;1482;51.398;7.128;2023-06-14T05:28:24;32.40;1.00
2945;DHT22;1482;51.398;7.128;2023-06-14T05:30:49;29.60;1.00
2945;DHT22;1482;51.398;7.128;2023-06-14T05:33:15;28.40;1.00
2945;DHT22;1482;51.398;7.128;2023-06-14T05:35:41;26.20;1.00
2945;DHT22;1482;51.398;7.128;2023-06-14T05:38:07;24.20;1.00
2945;DHT22;1482;51.398;7.128;2023-06-14T05:40:33;23.50;1.00
2945;DHT22;1482;51.398;7.128;2023-06-14T05:42:58;23.00;1.00
2945;DHT22;1482;51.398;7.128;2023-06-14T05:45:24;22.80;1.00
2945;DHT22;1482;51.398;7.128;2023-06-14T05:47:49;22.40;1.00
2945;DHT22;1482;51.398;7.128;2023-06-14T05:50:15;22.50;1.00
2945;DHT22;1482;51.398;7.128;2023-06-14T05:52:41;21.60;1.00
2945;DHT22;1482;51.398;7.128;2023-06-14T05:55:07;21.30;1.00
2945;DHT22;1482;51.398;7.128;2023-06-14T05:57:33;20.90;1.00
2945;DHT22;1482;51.398;7.128;2023-06-14T05:59:58;20.90;1.00
2945;DHT22;1482;51.398;7.128;2023-06-14T06:02:24;20.90;1.00
2945;DHT22;1482;51.398;7.128;2023-06-14T06:04:50;20.90;1.00
2945;DHT22;1482;51.398;7.128;2023-06-14T06:07:15;21.00;1.00
2945;DHT22;1482;51.398;7.128;2023-06-14T06:09:41;20.90;1.00
2945;DHT22;1482;51.398;7.128;2023-06-14T06:12:07;20.90;1.00
2945;DHT22;1482;51.398;7.128;2023-06-14T06:14:33;20.90;1.00
2945;DHT22;1482;51.398;7.128;2023-06-14T06:16:58;21.00;1.00
2945;DHT22;1482;51.398;7.128;2023-06-14T06:19:24;21.00;1.00
2945;DHT22;1482;51.398;7.128;2023-06-14T06:21:50;20.90;1.00
2945;DHT22;1482;51.398;7.128;2023-06-14T06:24:16;20.70;1.00
2945;DHT22;1482;51.398;7.128;2023-06-14T06:26:42;21.00;1.00
2945;DHT22;1482;51.398;7.128;2023-06-14T06:29:07;21.40;1.00
2945;DHT22;1482;51.398;7.128;2023-06-14T06:31:33;21.60;1.00
2945;DHT22;1482;51.398;7.128;2023-06-14T06:33:58;21.50;1.00
2945;DHT22;1482;51.398;7.128;2023-06-14T06:36:24;21.70;1.00
2945;DHT22;1482;51.398;7.128;2023-06-14T06:38:50;21.30;1.00
2945;DHT22;1482;51.398;7.128;2023-06-14T06:41:15;21.60;1.00
2945;DHT22;1482;51.398;7.128;2023-06-14T06:43:41;21.90;1.00
2945;DHT22;1482;51.398;7.128;2023-06-14T06:46:07;22.20;1.00
2945;DHT22;1482;51.398;7.128;2023-06-14T06:48:32;22.10;1.00
2945;DHT22;1482;51.398;7.128;2023-06-14T06:50:58;21.80;1.00
2945;DHT22;1482;51.398;7.128;2023-06-14T06:53:23;21.80;1.00
2945;DHT22;1482;51.398;7.128;2023-06-14T06:55:49;21.70;1.00
2945;DHT22;1482;51.398;7.128;2023-06-14T06:58:14;21.80;1.00
2945;DHT22;1482;51.398;7.128;2023-06-14T07:00:40;21.90;1.00
2945;DHT22;1482;51.398;7.128;2023-06-14T07:03:06;21.70;1.00
2945;DHT22;1482;51.398;7.128;2023-06-14T07:05:32;21.70;1.00
2945;DHT22;1482;51.398;7.128;2023-06-14T07:07:57;21.80;1.00
2945;DHT22;1482;51.398;7.128;2023-06-14T07:10:23;22.00;1.00
2945;DHT22;1482;51.398;7.128;2023-06-14T07:12:50;21.90;1.00
2945;DHT22;1482;51.398;7.128;2023-06-14T07:15:15;21.90;1.00
2945;DHT22;1482;51.398;7.128;2023-06-14T07:17:41;21.80;1.00
2945;DHT22;1482;51.398;7.128;2023-06-14T07:20:08;22.00;1.00
2945;DHT22;1482;51.398;7.128;2023-06-14T07:22:43;21.90;1.00
2945;DHT22;1482;51.398;7.128;2023-06-14T07:25:10;22.30;1.00
2945;DHT22;1482;51.398;7.128;2023-06-14T07:27:39;22.70;1.00
2945;DHT22;1482;51.398;7.128;2023-06-14T07:30:06;22.60;1.00
2945;DHT22;1482;51.398;7.128;2023-06-14T07:32:32;22.50;1.00
2945;DHT22;1482;51.398;7.128;2023-06-14T07:34:57;22.70;1.00
2945;DHT22;1482;51.398;7.128;2023-06-14T07:37:23;23.00;1.00
2945;DHT22;1482;51.398;7.128;2023-06-14T07:39:48;23.00;1.00
2945;DHT22;1482;51.398;7.128;2023-06-14T07:42:14;23.20;1.00
2945;DHT22;1482;51.398;7.128;2023-06-14T07:44:40;23.20;1.00
2945;DHT22;1482;51.398;7.128;2023-06-14T07:47:05;23.60;1.00
2945;DHT22;1482;51.398;7.128;2023-06-14T07:49:31;23.00;1.00
2945;DHT22;1482;51.398;7.128;2023-06-14T07:51:56;23.10;1.00
2945;DHT22;1482;51.398;7.128;2023-06-14T07:54:22;23.20;1.00
2945;DHT22;1482;51.398;7.128;2023-06-14T07:56:51;23.10;1.00
2945;DHT22;1482;51.398;7.128;2023-06-14T07:59:17;23.20;1.00
2945;DHT22;1482;51.398;7.128;2023-06-14T08:01:43;22.90;1.00
2945;DHT22;1482;51.398;7.128;2023-06-14T08:04:13;22.60;1.00
2945;DHT22;1482;51.398;7.128;2023-06-14T08:06:39;22.50;1.00
2945;DHT22;1482;51.398;7.128;2023-06-14T08:09:04;23.00;1.00
2945;DHT22;1482;51.398;7.128;2023-06-14T08:11:31;23.10;1.00
2945;DHT22;1482;51.398;7.128;2023-06-14T08:13:56;23.00;1.00
2945;DHT22;1482;51.398;7.128;2023-06-14T08:16:22;22.70;1.00
2945;DHT22;1482;51.398;7.128;2023-06-14T08:18:48;23.10;1.00
2945;DHT22;1482;51.398;7.128;2023-06-14T08:21:13;23.40;1.00
2945;DHT22;1482;51.398;7.128;2023-06-14T08:23:40;23.00;1.00
2945;DHT22;1482;51.398;7.128;2023-06-14T08:26:08;22.60;1.00
2945;DHT22;1482;51.398;7.128;2023-06-14T08:28:34;22.40;1.00
2945;DHT22;1482;51.398;7.128;2023-06-14T08:30:59;22.50;1.00
2945;DHT22;1482;51.398;7.128;2023-06-14T08:33:25;22.80;1.00
2945;DHT22;1482;51.398;7.128;2023-06-14T08:35:51;22.50;1.00
2945;DHT22;1482;51.398;7.128;2023-06-14T08:38:16;22.20;1.00
2945;DHT22;1482;51.398;7.128;2023-06-14T08:40:42;22.50;1.00
2945;DHT22;1482;51.398;7.128;2023-06-14T08:43:08;22.70;1.00
2945;DHT22;1482;51.398;7.128;2023-06-14T08:45:33;22.70;1.00
2945;DHT22;1482;51.398;7.128;2023-06-14T08:48:00;22.80;1.00
2945;DHT22;1482;51.398;7.128;2023-06-14T08:50:26;22.80;1.00
2945;DHT22;1482;51.398;7.128;2023-06-14T08:52:56;22.50;1.00
2945;DHT22;1482;51.398;7.128;2023-06-14T08:55:23;22.20;1.00
2945;DHT22;1482;51.398;7.128;2023-06-14T08:57:54;22.20;1.00
2945;DHT22;1482;51.398;7.128;2023-06-14T09:00:20;22.50;1.00
2945;DHT22;1482;51.398;7.128;2023-06-14T09:02:46;22.00;1.00
2945;DHT22;1482;51.398;7.128;2023-06-14T09:05:12;21.90;1.00
2945;DHT22;1482;51.398;7.128;2023-06-14T09:07:41;22.40;1.00
2945;DHT22;1482;51.398;7.128;2023-06-14T09:10:11;22.20;1.00
2945;DHT22;1482;51.398;7.128;2023-06-14T09:12:37;22.30;1.00
2945;DHT22;1482;51.398;7.128;2023-06-14T09:15:03;22.50;1.00
2945;DHT22;1482;51.398;7.128;2023-06-14T09:17:41;23.00;1.00
2945;DHT22;1482;51.398;7.128;2023-06-14T09:20:08;23.20;1.00
2945;DHT22;1482;51.398;7.128;2023-06-14T09:22:39;23.50;1.00
2945;DHT22;1482;51.398;7.128;2023-06-14T09:25:05;23.80;1.00
2945;DHT22;1482;51.398;7.128;2023-06-14T09:27:32;24.10;1.00
2945;DHT22;1482;51.398;7.128;2023-06-14T09:29:58;24.00;1.00
2945;DHT22;1482;51.398;7.128;2023-06-14T09:32:24;23.30;1.00
2945;DHT22;1482;51.398;7.128;2023-06-14T09:34:50;22.90;1.00
2945;DHT22;1482;51.398;7.128;2023-06-14T09:37:32;22.70;1.00
2945;DHT22;1482;51.398;7.128;2023-06-14T09:39:58;22.90;1.00
2945;DHT22;1482;51.398;7.128;2023-06-14T09:42:24;22.50;1.00
2945;DHT22;1482;51.398;7.128;2023-06-14T09:44:54;22.60;1.00
2945;DHT22;1482;51.398;7.128;2023-06-14T09:47:21;22.50;1.00
2945;DHT22;1482;51.398;7.128;2023-06-14T09:49:47;22.20;1.00
2945;DHT22;1482;51.398;7.128;2023-06-14T09:52:18;22.60;1.00
2945;DHT22;1482;51.398;7.128;2023-06-14T09:54:44;22.80;1.00
2945;DHT22;1482;51.398;7.128;2023-06-14T09:57:14;23.20;1.00
2945;DHT22;1482;51.398;7.128;2023-06-14T09:59:45;23.00;1.00
2945;DHT22;1482;51.398;7.128;2023-06-14T10:02:25;22.70;1.00
2945;DHT22;1482;51.398;7.128;2023-06-14T10:05:17;23.00;1.00
2945;DHT22;1482;51.398;7.128;2023-06-14T10:10:15;22.90;1.00
2945;DHT22;1482;51.398;7.128;2023-06-14T10:12:40;23.40;1.00
2945;DHT22;1482;51.398;7.128;2023-06-14T10:15:09;23.20;1.00
2945;DHT22;1482;51.398;7.128;2023-06-14T10:17:39;23.20;1.00
2945;DHT22;1482;51.398;7.128;2023-06-14T10:22:51;23.50;1.00
2945;DHT22;1482;51.398;7.128;2023-06-14T10:25:28;23.80;1.00
2945;DHT22;1482;51.398;7.128;2023-06-14T10:30:37;24.00;1.00
2945;DHT22;1482;51.398;7.128;2023-06-14T10:33:04;23.70;1.00
2945;DHT22;1482;51.398;7.128;2023-06-14T10:35:30;23.80;1.00
2945;DHT22;1482;51.398;7.128;2023-06-14T10:38:06;24.00;1.00
2945;DHT22;1482;51.398;7.128;2023-06-14T10:40:32;24.40;1.00
2945;DHT22;1482;51.398;7.128;2023-06-14T10:42:58;23.90;1.00
2945;DHT22;1482;51.398;7.128;2023-06-14T10:45:24;23.80;1.00
2945;DHT22;1482;51.398;7.128;2023-06-14T10:47:49;23.80;1.00
2945;DHT22;1482;51.398;7.128;2023-06-14T10:50:17;24.00;1.00
2945;DHT22;1482;51.398;7.128;2023-06-14T10:52:52;24.10;1.00
2945;DHT22;1482;51.398;7.128;2023-06-14T10:55:18;24.10;1.00
2945;DHT22;1482;51.398;7.128;2023-06-14T10:57:49;23.60;1.00
2945;DHT22;1482;51.398;7.128;2023-06-14T11:00:28;23.20;1.00
2945;DHT22;1482;51.398;7.128;2023-06-14T11:05:48;23.50;1.00
2945;DHT22;1482;51.398;7.128;2023-06-14T11:11:22;23.50;1.00
2945;DHT22;1482;51.398;7.128;2023-06-14T11:13:49;23.80;1.00
2945;DHT22;1482;51.398;7.128;2023-06-14T11:16:16;23.90;1.00
2945;DHT22;1482;51.398;7.128;2023-06-14T11:18:42;24.20;1.00
2945;DHT22;1482;51.398;7.128;2023-06-14T11:21:08;23.90;1.00
2945;DHT22;1482;51.398;7.128;2023-06-14T11:23:34;24.30;1.00
2945;DHT22;1482;51.398;7.128;2023-06-14T11:26:00;24.20;1.00
2945;DHT22;1482;51.398;7.128;2023-06-14T11:28:38;24.40;1.00
2945;DHT22;1482;51.398;7.128;2023-06-14T11:31:04;24.00;1.00
2945;DHT22;1482;51.398;7.128;2023-06-14T11:33:30;24.20;1.00
2945;DHT22;1482;51.398;7.128;2023-06-14T11:35:56;24.60;1.00
2945;DHT22;1482;51.398;7.128;2023-06-14T11:38:21;24.70;1.00
2945;DHT22;1482;51.398;7.128;2023-06-14T11:40:47;24.20;1.00
2945;DHT22;1482;51.398;7.128;2023-06-14T11:43:12;24.10;1.00
2945;DHT22;1482;51.398;7.128;2023-06-14T11:45:39;23.80;1.00
2945;DHT22;1482;51.398;7.128;2023-06-14T11:48:06;23.60;1.00
2945;DHT22;1482;51.398;7.128;2023-06-14T11:50:32;23.60;1.00
2945;DHT22;1482;51.398;7.128;2023-06-14T11:53:01;24.20;1.00
2945;DHT22;1482;51.398;7.128;2023-06-14T11:55:36;24.10;1.00
2945;DHT22;1482;51.398;7.128;2023-06-14T11:58:02;24.20;1.00
2945;DHT22;1482;51.398;7.128;2023-06-14T12:00:28;23.80;1.00
2945;DHT22;1482;51.398;7.128;2023-06-14T12:02:56;23.90;1.00
2945;DHT22;1482;51.398;7.128;2023-06-14T12:05:22;24.10;1.00
2945;DHT22;1482;51.398;7.128;2023-06-14T12:07:49;24.40;1.00
2945;DHT22;1482;51.398;7.128;2023-06-14T12:10:16;24.40;1.00
2945;DHT22;1482;51.398;7.128;2023-06-14T12:12:42;24.80;1.00
2945;DHT22;1482;51.398;7.128;2023-06-14T12:15:09;25.10;1.00
2945;DHT22;1482;51.398;7.128;2023-06-14T12:17:37;25.30;1.00
2945;DHT22;1482;51.398;7.128;2023-06-14T12:20:10;25.00;1.00
2945;DHT22;1482;51.398;7.128;2023-06-14T12:22:37;24.90;1.00
2945;DHT22;1482;51.398;7.128;2023-06-14T12:25:04;25.30;1.00
2945;DHT22;1482;51.398;7.128;2023-06-14T12:27:30;25.10;1.00
2945;DHT22;1482;51.398;7.128;2023-06-14T12:30:03;25.40;1.00
2945;DHT22;1482;51.398;7.128;2023-06-14T12:32:29;25.60;1.00
2945;DHT22;1482;51.398;7.128;2023-06-14T12:34:55;25.70;1.00
2945;DHT22;1482;51.398;7.128;2023-06-14T12:37:20;25.00;1.00
2945;DHT22;1482;51.398;7.128;2023-06-14T12:39:46;25.10;1.00
2945;DHT22;1482;51.398;7.128;2023-06-14T12:42:11;24.90;1.00
2945;DHT22;1482;51.398;7.128;2023-06-14T12:44:40;24.80;1.00
2945;DHT22;1482;51.398;7.128;2023-06-14T12:47:07;24.70;1.00
2945;DHT22;1482;51.398;7.128;2023-06-14T12:49:33;24.40;1.00
2945;DHT22;1482;51.398;7.128;2023-06-14T12:51:58;24.10;1.00
2945;DHT22;1482;51.398;7.128;2023-06-14T12:54:24;24.60;1.00
2945;DHT22;1482;51.398;7.128;2023-06-14T12:56:51;24.90;1.00
2945;DHT22;1482;51.398;7.128;2023-06-14T12:59:17;24.90;1.00
2945;DHT22;1482;51.398;7.128;2023-06-14T13:01:43;25.00;1.00
2945;DHT22;1482;51.398;7.128;2023-06-14T13:04:10;24.80;1.00
2945;DHT22;1482;51.398;7.128;2023-06-14T13:06:36;24.60;1.00
2945;DHT22;1482;51.398;7.128;2023-06-14T13:09:01;24.70;1.00
2945;DHT22;1482;51.398;7.128;2023-06-14T13:11:29;24.20;1.00
2945;DHT22;1482;51.398;7.128;2023-06-14T13:13:54;24.30;1.00
2945;DHT22;1482;51.398;7.128;2023-06-14T13:16:20;24.60;1.00
2945;DHT22;1482;51.398;7.128;2023-06-14T13:18:45;24.60;1.00
2945;DHT22;1482;51.398;7.128;2023-06-14T13:21:11;24.80;1.00
2945;DHT22;1482;51.398;7.128;2023-06-14T13:23:36;25.10;1.00
2945;DHT22;1482;51.398;7.128;2023-06-14T13:26:02;25.20;1.00
2945;DHT22;1482;51.398;7.128;2023-06-14T13:28:27;25.20;1.00
2945;DHT22;1482;51.398;7.128;2023-06-14T13:30:53;25.00;1.00
2945;DHT22;1482;51.398;7.128;2023-06-14T13:33:21;25.00;1.00
2945;DHT22;1482;51.398;7.128;2023-06-14T13:35:46;24.90;1.00
2945;DHT22;1482;51.398;7.128;2023-06-14T13:38:12;24.80;1.00
2945;DHT22;1482;51.398;7.128;2023-06-14T13:40:37;24.80;1.00
2945;DHT22;1482;51.398;7.128;2023-06-14T13:43:03;25.10;1.00
2945;DHT22;1482;51.398;7.128;2023-06-14T13:45:28;25.30;1.00
2945;DHT22;1482;51.398;7.128;2023-06-14T13:47:54;25.70;1.00
2945;DHT22;1482;51.398;7.128;2023-06-14T13:50:20;25.80;1.00
2945;DHT22;1482;51.398;7.128;2023-06-14T13:52:45;26.00;1.00
2945;DHT22;1482;51.398;7.128;2023-06-14T13:55:11;26.10;1.00
2945;DHT22;1482;51.398;7.128;2023-06-14T13:57:37;26.10;1.00
2945;DHT22;1482;51.398;7.128;2023-06-14T14:00:02;25.60;1.00
2945;DHT22;1482;51.398;7.128;2023-06-14T14:02:29;25.70;1.00
2945;DHT22;1482;51.398;7.128;2023-06-14T14:04:55;25.50;1.00
2945;DHT22;1482;51.398;7.128;2023-06-14T14:07:21;24.70;1.00
2945;DHT22;1482;51.398;7.128;2023-06-14T14:09:47;24.80;1.00
2945;DHT22;1482;51.398;7.128;2023-06-14T14:12:13;24.80;1.00
2945;DHT22;1482;51.398;7.128;2023-06-14T14:14:39;25.00;1.00
2945;DHT22;1482;51.398;7.128;2023-06-14T14:17:05;25.20;1.00
2945;DHT22;1482;51.398;7.128;2023-06-14T14:19:32;25.10;1.00
2945;DHT22;1482;51.398;7.128;2023-06-14T14:21:57;25.20;1.00
2945;DHT22;1482;51.398;7.128;2023-06-14T14:24:23;25.40;1.00
2945;DHT22;1482;51.398;7.128;2023-06-14T14:26:48;25.50;1.00
2945;DHT22;1482;51.398;7.128;2023-06-14T14:29:15;25.40;1.00
2945;DHT22;1482;51.398;7.128;2023-06-14T14:31:41;25.40;1.00
2945;DHT22;1482;51.398;7.128;2023-06-14T14:34:06;25.50;1.00
2945;DHT22;1482;51.398;7.128;2023-06-14T14:36:32;25.50;1.00
2945;DHT22;1482;51.398;7.128;2023-06-14T14:39:03;25.00;1.00
2945;DHT22;1482;51.398;7.128;2023-06-14T14:41:29;25.10;1.00
2945;DHT22;1482;51.398;7.128;2023-06-14T14:43:55;25.10;1.00
2945;DHT22;1482;51.398;7.128;2023-06-14T14:46:20;24.80;1.00
2945;DHT22;1482;51.398;7.128;2023-06-14T14:48:46;24.40;1.00
2945;DHT22;1482;51.398;7.128;2023-06-14T14:51:12;24.40;1.00
2945;DHT22;1482;51.398;7.128;2023-06-14T14:53:37;24.60;1.00
2945;DHT22;1482;51.398;7.128;2023-06-14T14:56:03;24.80;1.00
2945;DHT22;1482;51.398;7.128;2023-06-14T14:58:28;24.80;1.00
2945;DHT22;1482;51.398;7.128;2023-06-14T15:00:54;24.70;1.00
2945;DHT22;1482;51.398;7.128;2023-06-14T15:03:20;24.60;1.00
2945;DHT22;1482;51.398;7.128;2023-06-14T15:05:46;24.40;1.00
2945;DHT22;1482;51.398;7.128;2023-06-14T15:08:12;24.40;1.00
2945;DHT22;1482;51.398;7.128;2023-06-14T15:10:40;24.40;1.00
2945;DHT22;1482;51.398;7.128;2023-06-14T15:13:09;24.50;1.00
2945;DHT22;1482;51.398;7.128;2023-06-14T15:15:35;24.60;1.00
2945;DHT22;1482;51.398;7.128;2023-06-14T15:18:01;24.70;1.00
2945;DHT22;1482;51.398;7.128;2023-06-14T15:20:27;24.40;1.00
2945;DHT22;1482;51.398;7.128;2023-06-14T15:22:53;24.30;1.00
2945;DHT22;1482;51.398;7.128;2023-06-14T15:25:25;24.40;1.00
2945;DHT22;1482;51.398;7.128;2023-06-14T15:27:50;24.50;1.00
2945;DHT22;1482;51.398;7.128;2023-06-14T15:30:16;24.40;1.00
2945;DHT22;1482;51.398;7.128;2023-06-14T15:32:41;24.60;1.00
2945;DHT22;1482;51.398;7.128;2023-06-14T15:35:07;24.70;1.00
2945;DHT22;1482;51.398;7.128;2023-06-14T15:37:33;24.80;1.00
2945;DHT22;1482;51.398;7.128;2023-06-14T15:39:58;24.70;1.00
2945;DHT22;1482;51.398;7.128;2023-06-14T15:42:24;24.70;1.00
2945;DHT22;1482;51.398;7.128;2023-06-14T15:44:49;24.60;1.00
2945;DHT22;1482;51.398;7.128;2023-06-14T15:47:15;24.70;1.00
2945;DHT22;1482;51.398;7.128;2023-06-14T15:49:40;24.70;1.00
2945;DHT22;1482;51.398;7.128;2023-06-14T15:52:06;24.70;1.00
2945;DHT22;1482;51.398;7.128;2023-06-14T15:54:32;24.60;1.00
2945;DHT22;1482;51.398;7.128;2023-06-14T15:56:57;24.20;1.00
2945;DHT22;1482;51.398;7.128;2023-06-14T15:59:23;24.00;1.00
2945;DHT22;1482;51.398;7.128;2023-06-14T16:01:49;23.90;1.00
2945;DHT22;1482;51.398;7.128;2023-06-14T16:04:15;23.70;1.00
2945;DHT22;1482;51.398;7.128;2023-06-14T16:06:40;23.60;1.00
2945;DHT22;1482;51.398;7.128;2023-06-14T16:09:06;23.70;1.00
2945;DHT22;1482;51.398;7.128;2023-06-14T16:11:31;23.80;1.00
2945;DHT22;1482;51.398;7.128;2023-06-14T16:13:57;24.00;1.00
2945;DHT22;1482;51.398;7.128;2023-06-14T16:16:23;23.90;1.00
2945;DHT22;1482;51.398;7.128;2023-06-14T16:18:49;24.00;1.00
2945;DHT22;1482;51.398;7.128;2023-06-14T16:21:14;24.20;1.00
2945;DHT22;1482;51.398;7.128;2023-06-14T16:23:41;24.20;1.00
2945;DHT22;1482;51.398;7.128;2023-06-14T16:26:10;24.20;1.00
2945;DHT22;1482;51.398;7.128;2023-06-14T16:28:36;24.20;1.00
2945;DHT22;1482;51.398;7.128;2023-06-14T16:31:02;24.40;1.00